Time;durP1;ratioP1;P1;durP2;ratioP2;P2;SDS_P1;SDS_P2;PMS_P1;PMS_P2;Temp;Humidity;BMP_temperature;BMP_pressure;BME280_temperature;BME280_humidity;BME280_pressure;Samples;Min_cycle;Max_cycle;Signal;HPM_P1;HPM_P2
2023/08/23 00:02:30;;;;;;;8.85;6.10;;;;;23.10;96632.00;;;;8349828;28;20311;-71
2023/08/23 00:06:41;;;;;;;8.43;5.90;;;;;23.00;96630.00;;;;8341162;28;20702;-72
2023/08/23 00:10:48;;;;;;;11.55;6.18;;;;;22.80;96634.00;;;;8350023;28;20223;-71
2023/08/23 00:14:55;;;;;;;7.75;5.47;;;;;22.70;96632.00;;;;8350272;28;20932;-71
2023/08/23 00:18:58;;;;;;;6.63;5.57;;;;;22.60;96628.00;;;;8347945;28;20228;-72
2023/08/23 00:23:03;;;;;;;6.57;5.43;;;;;22.50;96631.00;;;;8349708;28;20207;-71
2023/08/23 00:27:06;;;;;;;10.38;5.63;;;;;22.40;96625.00;;;;8349111;28;20721;-72
2023/08/23 00:31:14;;;;;;;5.82;5.22;;;;;22.30;96629.00;;;;8351393;28;20784;-72
2023/08/23 00:35:21;;;;;;;7.88;5.95;;;;;22.30;96634.00;;;;8341185;28;20205;-72
2023/08/23 00:39:28;;;;;;;7.20;5.57;;;;;22.20;96641.00;;;;8348142;28;20234;-73
2023/08/23 00:43:31;;;;;;;7.68;5.78;;;;;22.10;96636.00;;;;8342393;28;20714;-72
2023/08/23 00:47:35;;;;;;;6.35;5.57;;;;;22.00;96639.00;;;;8350281;28;21625;-73
2023/08/23 00:51:39;;;;;;;10.18;5.47;;;;;21.80;96635.00;;;;8340681;28;20197;-72
2023/08/23 00:55:49;;;;;;;6.13;5.13;;;;;21.70;96631.00;;;;8343335;28;20665;-71
2023/08/23 00:59:54;;;;;;;6.20;5.47;;;;;21.70;96628.00;;;;8349643;28;21106;-72
2023/08/23 01:03:59;;;;;;;6.80;5.40;;;;;21.60;96632.00;;;;8344476;28;20354;-72
2023/08/23 01:08:10;;;;;;;6.25;4.68;;;;;21.60;96633.00;;;;8342460;28;20200;-72
2023/08/23 01:12:26;;;;;;;7.75;5.05;;;;;21.50;96625.00;;;;8343489;28;20219;-72
2023/08/23 01:16:31;;;;;;;9.93;5.47;;;;;21.50;96622.00;;;;8340651;28;20207;-72
2023/08/23 01:20:38;;;;;;;9.73;5.30;;;;;21.50;96615.00;;;;8329892;28;20277;-72
2023/08/23 01:24:46;;;;;;;5.85;5.20;;;;;21.50;96614.00;;;;8345411;28;20661;-72
2023/08/23 01:28:51;;;;;;;6.00;4.35;;;;;21.50;96620.00;;;;8347070;28;20211;-71
2023/08/23 01:33:03;;;;;;;7.53;4.47;;;;;21.70;96614.00;;;;8339009;28;20205;-71
2023/08/23 01:37:08;;;;;;;9.18;4.35;;;;;21.80;96619.00;;;;8345640;28;20205;-71
2023/08/23 01:41:17;;;;;;;10.35;4.88;;;;;22.00;96614.00;;;;8340025;28;20232;-72
2023/08/23 01:45:20;;;;;;;8.38;4.78;;;;;22.00;96617.00;;;;8340229;28;21809;-71
2023/08/23 01:49:23;;;;;;;6.20;4.75;;;;;22.10;96618.00;;;;8345302;28;20292;-71
2023/08/23 01:53:26;;;;;;;5.70;5.07;;;;;22.10;96622.00;;;;8347180;28;20820;-70
2023/08/23 01:57:41;;;;;;;6.85;5.38;;;;;22.00;96622.00;;;;8340176;28;20217;-71
2023/08/23 02:01:44;;;;;;;6.47;5.25;;;;;21.80;96613.00;;;;8345246;28;20588;-70
2023/08/23 02:05:50;;;;;;;10.05;5.45;;;;;21.60;96622.00;;;;8342166;28;20202;-71
2023/08/23 02:09:53;;;;;;;7.57;5.65;;;;;21.50;96622.00;;;;8344987;28;20606;-72
2023/08/23 02:13:59;;;;;;;9.02;5.55;;;;;21.40;96621.00;;;;8338182;28;20750;-71
2023/08/23 02:18:07;;;;;;;7.80;5.80;;;;;21.30;96626.00;;;;8341441;28;20270;-72
2023/08/23 02:22:11;;;;;;;12.90;6.40;;;;;21.10;96632.00;;;;8344177;28;20700;-71
2023/08/23 02:26:14;;;;;;;11.13;6.05;;;;;21.00;96628.00;;;;8346647;28;20283;-72
2023/08/23 02:30:31;;;;;;;13.55;6.20;;;;;21.00;96619.00;;;;8344138;28;20232;-72
2023/08/23 02:34:35;;;;;;;13.45;6.72;;;;;20.90;96623.00;;;;8335684;28;20247;-72
2023/08/23 02:38:38;;;;;;;7.72;6.22;;;;;20.80;96617.00;;;;8343799;28;20707;-72
2023/08/23 02:42:44;;;;;;;8.10;6.43;;;;;20.70;96622.00;;;;8341719;28;20826;-73
2023/08/23 02:46:50;;;;;;;8.35;6.80;;;;;20.60;96628.00;;;;8338862;28;20203;-72
2023/08/23 02:50:56;;;;;;;21.10;8.00;;;;;20.50;96626.00;;;;8321975;28;20197;-71
2023/08/23 02:55:01;;;;;;;9.25;7.13;;;;;20.40;96622.00;;;;8340109;28;20196;-71
2023/08/23 02:59:05;;;;;;;10.10;6.63;;;;;20.40;96622.00;;;;8341839;28;20266;-71
2023/08/23 03:03:09;;;;;;;11.18;7.15;;;;;20.20;96621.00;;;;8375889;22;20238;-71
2023/08/23 03:07:13;;;;;;;9.45;6.85;;;;;20.20;96621.00;;;;8277334;28;20267;-71
2023/08/23 03:11:16;;;;;;;13.35;7.32;;;;;20.10;96619.00;;;;8281186;28;20217;-72
2023/08/23 03:15:19;;;;;;;7.53;6.80;;;;;20.10;96615.00;;;;8274449;28;20206;-70
2023/08/23 03:19:27;;;;;;;13.70;7.50;;;;;20.00;96609.00;;;;8263194;28;20240;-72
2023/08/23 03:23:32;;;;;;;13.20;7.32;;;;;19.80;96610.00;;;;8276693;28;20995;-72
2023/08/23 03:27:35;;;;;;;12.65;7.35;;;;;19.80;96615.00;;;;8263648;28;20289;-72
2023/08/23 03:31:38;;;;;;;12.40;7.55;;;;;19.70;96618.00;;;;8279696;28;20209;-72
2023/08/23 03:35:52;;;;;;;13.27;8.15;;;;;19.60;96617.00;;;;8261357;28;20365;-71
2023/08/23 03:39:55;;;;;;;15.00;8.05;;;;;19.50;96633.00;;;;8278016;28;20691;-70
2023/08/23 03:44:03;;;;;;;11.38;7.85;;;;;19.50;96624.00;;;;8274809;28;20282;-69
2023/08/23 03:48:07;;;;;;;8.75;6.45;;;;;19.50;96627.00;;;;8281526;28;20214;-72
2023/08/23 03:52:13;;;;;;;13.57;7.40;;;;;19.40;96633.00;;;;8277374;28;20639;-70
2023/08/23 03:56:16;;;;;;;10.32;7.13;;;;;19.40;96633.00;;;;8280912;28;20670;-70
2023/08/23 04:00:19;;;;;;;9.25;7.22;;;;;19.40;96634.00;;;;8277951;28;20236;-72
2023/08/23 04:04:22;;;;;;;11.05;7.43;;;;;19.40;96642.00;;;;8268144;28;20226;-71
2023/08/23 04:08:30;;;;;;;12.35;7.20;;;;;19.30;96642.00;;;;8263938;28;20209;-71
2023/08/23 04:12:33;;;;;;;14.73;7.07;;;;;19.30;96643.00;;;;8267414;28;20281;-71
2023/08/23 04:16:38;;;;;;;14.55;7.55;;;;;19.30;96645.00;;;;8258986;28;20198;-67
2023/08/23 04:20:42;;;;;;;15.07;7.38;;;;;19.30;96649.00;;;;8239471;28;20245;-67
2023/08/23 04:24:46;;;;;;;14.40;7.70;;;;;19.30;96648.00;;;;8270392;28;20203;-67
2023/08/23 04:28:49;;;;;;;13.10;7.80;;;;;19.30;96650.00;;;;8260741;28;20207;-67
2023/08/23 04:32:53;;;;;;;14.38;8.13;;;;;19.30;96652.00;;;;8256119;28;20293;-68
2023/08/23 04:36:56;;;;;;;11.18;7.00;;;;;19.30;96655.00;;;;8268908;28;20209;-67
2023/08/23 04:41:03;;;;;;;13.80;7.10;;;;;19.30;96652.00;;;;8269730;28;21025;-68
2023/08/23 04:45:08;;;;;;;9.93;7.70;;;;;19.30;96636.00;;;;8262251;28;20214;-67
2023/08/23 04:49:11;;;;;;;12.27;8.32;;;;;19.30;96638.00;;;;8267696;28;20208;-67
2023/08/23 04:53:16;;;;;;;12.68;8.02;;;;;19.30;96636.00;;;;8271532;28;21173;-67
2023/08/23 04:57:21;;;;;;;14.55;8.70;;;;;19.40;96639.00;;;;8272524;28;20742;-67
2023/08/23 05:01:24;;;;;;;13.48;7.60;;;;;19.50;96630.00;;;;8266214;28;20248;-66
2023/08/23 05:05:29;;;;;;;13.27;7.65;;;;;19.60;96635.00;;;;8267227;28;20231;-66
2023/08/23 05:09:32;;;;;;;12.32;7.20;;;;;19.70;96634.00;;;;8268030;28;20309;-67
2023/08/23 05:13:36;;;;;;;10.45;7.45;;;;;19.80;96638.00;;;;8259466;28;20546;-67
2023/08/23 05:17:40;;;;;;;14.45;8.30;;;;;20.00;96630.00;;;;8270411;28;20198;-67
2023/08/23 05:21:43;;;;;;;13.90;7.80;;;;;20.10;96631.00;;;;8264001;28;20262;-67
2023/08/23 05:25:50;;;;;;;8.95;6.95;;;;;20.20;96629.00;;;;8266150;28;20207;-67
2023/08/23 05:30:03;;;;;;;12.23;7.82;;;;;20.40;96632.00;;;;8259663;28;20210;-67
2023/08/23 05:34:06;;;;;;;11.50;7.35;;;;;20.50;96638.00;;;;8271826;28;20289;-67
2023/08/23 05:38:14;;;;;;;13.95;6.82;;;;;20.70;96634.00;;;;8265819;28;20203;-65
2023/08/23 05:42:20;;;;;;;7.50;6.70;;;;;20.90;96629.00;;;;8267669;28;20238;-65
2023/08/23 05:46:24;;;;;;;8.90;6.88;;;;;21.10;96638.00;;;;8265854;28;20204;-65
2023/08/23 05:50:28;;;;;;;14.27;6.28;;;;;21.30;96642.00;;;;8267150;28;20282;-66
2023/08/23 05:54:32;;;;;;;18.70;7.43;;;;;21.50;96644.00;;;;8267603;28;20241;-66
2023/08/23 05:58:35;;;;;;;11.32;6.35;;;;;21.70;96645.00;;;;8260698;28;20198;-65
2023/08/23 06:02:41;;;;;;;7.38;6.30;;;;;22.00;96634.00;;;;8264447;28;20344;-65
2023/08/23 06:06:45;;;;;;;7.68;6.70;;;;;22.20;96637.00;;;;8255282;28;20230;-65
2023/08/23 06:10:51;;;;;;;14.32;6.30;;;;;22.40;96643.00;;;;8262147;28;20201;-66
2023/08/23 06:14:54;;;;;;;7.95;6.10;;;;;22.70;96643.00;;;;8260497;28;20723;-76
2023/08/23 06:18:59;;;;;;;9.52;6.80;;;;;22.90;96645.00;;;;8250167;28;20205;-78
2023/08/23 06:23:05;;;;;;;14.25;6.47;;;;;23.20;96653.00;;;;8258658;28;20238;-75
2023/08/23 06:27:08;;;;;;;8.93;6.25;;;;;23.50;96646.00;;;;8235781;28;20266;-80
2023/08/23 06:31:19;;;;;;;12.88;6.15;;;;;23.70;96646.00;;;;8254058;28;20559;-72
2023/08/23 06:35:26;;;;;;;11.50;6.30;;;;;24.00;96650.00;;;;8260009;28;20229;-70
2023/08/23 06:39:34;;;;;;;8.65;5.80;;;;;24.30;96656.00;;;;8258653;28;20233;-73
2023/08/23 06:43:38;;;;;;;11.15;5.95;;;;;24.70;96662.00;;;;8255642;28;20667;-73
2023/08/23 06:47:51;;;;;;;15.90;6.40;;;;;25.00;96660.00;;;;8246025;28;20851;-73
2023/08/23 06:51:56;;;;;;;13.93;6.22;;;;;25.40;96651.00;;;;8245155;28;20217;-75
2023/08/23 06:56:03;;;;;;;13.15;6.10;;;;;25.70;96654.00;;;;8244708;28;20194;-74
2023/08/23 07:00:07;;;;;;;7.32;5.95;;;;;26.10;96658.00;;;;8252804;28;20230;-74
2023/08/23 07:04:13;;;;;;;15.35;6.03;;;;;26.40;96651.00;;;;8258049;28;20312;-73
2023/08/23 07:08:36;;;;;;;9.60;5.70;;;;;26.80;96663.00;;;;8249740;28;20804;-75
2023/08/23 07:18:04;;;;;;;7.57;5.28;;;;;27.30;96675.00;;;;8209187;28;20252;-70
2023/08/23 07:22:10;;;;;;;6.70;5.78;;;;;27.80;96670.00;;;;8260903;28;20818;-70
2023/08/23 07:26:18;;;;;;;11.68;5.43;;;;;28.20;96677.00;;;;8264287;28;21021;-67
2023/08/23 07:30:25;;;;;;;10.73;5.85;;;;;28.70;96685.00;;;;8260494;28;20753;-67
2023/08/23 07:34:28;;;;;;;9.32;5.60;;;;;29.40;96689.00;;;;8266360;28;20202;-67
2023/08/23 07:38:32;;;;;;;10.77;5.07;;;;;30.10;96696.00;;;;8255645;28;20204;-69
2023/08/23 07:42:37;;;;;;;6.78;4.88;;;;;31.00;96696.00;;;;8246308;28;20748;-69
2023/08/23 07:46:40;;;;;;;9.68;5.45;;;;;31.30;96706.00;;;;8271020;28;20263;-69
2023/08/23 07:50:45;;;;;;;11.23;4.95;;;;;31.90;96703.00;;;;8260666;28;20229;-69
2023/08/23 07:54:48;;;;;;;8.02;4.70;;;;;32.40;96701.00;;;;8264164;28;20312;-69
2023/08/23 07:59:02;;;;;;;10.35;4.00;;;;;32.80;96695.00;;;;8267076;28;20238;-69
2023/08/23 08:03:09;;;;;;;8.20;4.35;;;;;33.20;96700.00;;;;8266557;28;20256;-69
2023/08/23 08:07:13;;;;;;;7.25;3.78;;;;;33.50;96701.00;;;;8263299;28;20264;-69
2023/08/23 08:11:38;;;;;;;4.88;4.47;;;;;33.50;96707.00;;;;8263169;28;20803;-69
2023/08/23 08:15:42;;;;;;;6.47;4.32;;;;;33.70;96714.00;;;;8248926;28;20703;-69
2023/08/23 08:19:49;;;;;;;8.70;3.83;;;;;33.90;96708.00;;;;8267727;28;20229;-69
2023/08/23 08:23:54;;;;;;;4.75;3.50;;;;;33.40;96717.00;;;;8267852;28;20228;-69
2023/08/23 08:27:57;;;;;;;10.90;4.10;;;;;32.40;96723.00;;;;8283824;28;20210;-69
2023/08/23 08:32:05;;;;;;;6.97;3.80;;;;;32.00;96714.00;;;;8271548;28;20907;-69
2023/08/23 08:36:08;;;;;;;8.65;3.80;;;;;32.10;96718.00;;;;8276282;28;20644;-69
2023/08/23 08:40:14;;;;;;;6.82;4.05;;;;;32.50;96709.00;;;;8253414;28;20252;-69
2023/08/23 08:44:20;;;;;;;5.55;3.75;;;;;33.00;96714.00;;;;8268828;28;20206;-69
2023/08/23 08:48:24;;;;;;;3.92;3.55;;;;;33.40;96706.00;;;;8269523;28;20550;-69
2023/08/23 08:52:30;;;;;;;6.60;3.58;;;;;33.90;96708.00;;;;8262788;28;20210;-69
2023/08/23 08:56:34;;;;;;;6.60;4.00;;;;;34.20;96720.00;;;;8257199;28;20285;-69
2023/08/23 09:00:40;;;;;;;7.80;3.47;;;;;33.90;96720.00;;;;8263845;28;20789;-72
2023/08/23 09:04:49;;;;;;;8.50;3.60;;;;;33.40;96716.00;;;;8265049;28;20227;-72
2023/08/23 09:08:54;;;;;;;4.93;3.50;;;;;33.80;96720.00;;;;8276435;28;20205;-72
2023/08/23 09:13:02;;;;;;;10.68;3.75;;;;;34.20;96716.00;;;;8270477;28;20709;-72
2023/08/23 09:17:08;;;;;;;6.68;3.40;;;;;35.00;96714.00;;;;8269189;28;20249;-72
2023/08/23 09:21:13;;;;;;;4.00;3.15;;;;;35.40;96718.00;;;;8277456;28;20213;-72
2023/08/23 09:25:21;;;;;;;5.28;3.50;;;;;35.00;96717.00;;;;8273648;28;20847;-72
2023/08/23 09:29:29;;;;;;;5.32;3.40;;;;;34.70;96716.00;;;;8278768;28;20230;-72
2023/08/23 09:33:35;;;;;;;4.15;3.05;;;;;35.20;96708.00;;;;8272536;28;20895;-72
2023/08/23 09:37:42;;;;;;;4.25;3.05;;;;;35.60;96710.00;;;;8275188;28;20674;-72
2023/08/23 09:41:45;;;;;;;4.47;3.15;;;;;35.90;96709.00;;;;8271216;28;20325;-72
2023/08/23 09:46:06;;;;;;;5.55;3.47;;;;;35.70;96704.00;;;;8255863;28;20213;-72
2023/08/23 09:50:13;;;;;;;10.07;3.85;;;;;36.00;96703.00;;;;8257289;28;20203;-72
2023/08/23 09:54:26;;;;;;;6.60;3.20;;;;;35.80;96716.00;;;;8266690;28;20913;-72
2023/08/23 09:58:48;;;;;;;3.78;3.35;;;;;35.40;96711.00;;;;8259860;28;20214;-72
2023/08/23 10:02:56;;;;;;;4.22;3.83;;;;;34.80;96714.00;;;;8258936;28;20400;-70
2023/08/23 10:07:03;;;;;;;4.45;3.78;;;;;34.80;96706.00;;;;8272355;28;20288;-71
2023/08/23 10:11:13;;;;;;;3.88;3.53;;;;;35.00;96707.00;;;;8260998;28;20800;-71
2023/08/23 10:15:19;;;;;;;10.55;3.83;;;;;35.00;96702.00;;;;8260033;28;20574;-71
2023/08/23 10:19:28;;;;;;;7.40;3.53;;;;;35.30;96715.00;;;;8264298;28;20671;-72
2023/08/23 10:23:36;;;;;;;4.30;3.33;;;;;35.10;96714.00;;;;8265469;28;20240;-72
2023/08/23 10:27:42;;;;;;;9.52;3.65;;;;;35.60;96701.00;;;;8268121;28;20198;-70
2023/08/23 10:31:56;;;;;;;4.85;3.88;;;;;35.70;96703.00;;;;8264162;28;20194;-70
2023/08/23 10:35:59;;;;;;;5.85;3.67;;;;;34.80;96707.00;;;;8258193;28;20317;-70
2023/08/23 10:40:09;;;;;;;5.53;3.58;;;;;35.10;96700.00;;;;8267871;28;20198;-76
2023/08/23 10:44:17;;;;;;;8.10;4.20;;;;;35.20;96700.00;;;;8270796;28;20865;-77
2023/08/23 10:48:23;;;;;;;4.10;3.80;;;;;35.40;96695.00;;;;8263733;28;20668;-79
2023/08/23 10:52:36;;;;;;;5.93;3.55;;;;;35.30;96688.00;;;;8283016;28;20622;-80
2023/08/23 10:56:39;;;;;;;8.73;4.15;;;;;35.00;96697.00;;;;8278420;28;20203;-80
2023/08/23 11:00:50;;;;;;;7.25;3.60;;;;;35.10;96696.00;;;;8266412;28;20225;-80
2023/08/23 11:04:55;;;;;;;6.72;3.53;;;;;35.40;96690.00;;;;8274783;28;20599;-79
2023/08/23 11:08:59;;;;;;;11.68;4.10;;;;;35.40;96683.00;;;;8257514;28;20203;-78
2023/08/23 11:13:05;;;;;;;6.78;3.97;;;;;35.70;96672.00;;;;8268880;28;20278;-74
2023/08/23 11:17:10;;;;;;;3.90;3.60;;;;;36.00;96677.00;;;;8262533;28;20213;-75
2023/08/23 11:21:13;;;;;;;6.60;3.67;;;;;35.60;96681.00;;;;8260696;28;20253;-74
2023/08/23 11:25:19;;;;;;;3.92;3.63;;;;;35.00;96674.00;;;;8270440;28;20261;-75
2023/08/23 11:29:23;;;;;;;5.97;4.00;;;;;34.70;96660.00;;;;8254884;28;20624;-76
2023/08/23 11:33:29;;;;;;;8.40;4.22;;;;;35.00;96663.00;;;;8270352;28;20666;-77
2023/08/23 11:37:32;;;;;;;7.57;3.65;;;;;35.10;96665.00;;;;8260638;28;20230;-76
2023/08/23 11:41:36;;;;;;;4.45;3.47;;;;;35.30;96655.00;;;;8273152;28;20230;-73
2023/08/23 11:45:40;;;;;;;3.60;3.30;;;;;35.60;96642.00;;;;8273889;28;20203;-73
2023/08/23 11:49:47;;;;;;;5.30;3.67;;;;;36.00;96656.00;;;;8266900;28;20213;-77
2023/08/23 11:53:51;;;;;;;4.88;3.25;;;;;36.00;96659.00;;;;8272743;28;20206;-72
2023/08/23 11:57:57;;;;;;;4.93;3.60;;;;;35.80;96660.00;;;;8249304;28;20328;-73
2023/08/23 12:02:04;;;;;;;4.95;3.38;;;;;35.20;96660.00;;;;8274914;28;20722;-75
2023/08/23 12:06:10;;;;;;;6.25;3.40;;;;;34.60;96660.00;;;;8268355;28;20847;-74
2023/08/23 12:10:13;;;;;;;4.22;3.58;;;;;34.00;96669.00;;;;8265936;28;20321;-74
2023/08/23 12:14:18;;;;;;;4.50;3.88;;;;;33.60;96671.00;;;;8261649;28;20284;-75
2023/08/23 12:18:23;;;;;;;9.18;3.60;;;;;33.20;96652.00;;;;8275642;28;20705;-74
2023/08/23 12:22:29;;;;;;;6.97;3.45;;;;;33.20;96652.00;;;;8258872;28;20230;-74
2023/08/23 12:26:38;;;;;;;6.78;3.13;;;;;33.20;96656.00;;;;8253827;28;20210;-74
2023/08/23 12:30:42;;;;;;;4.68;3.33;;;;;33.10;96657.00;;;;8260667;28;20210;-75
2023/08/23 12:34:45;;;;;;;5.93;3.50;;;;;33.00;96648.00;;;;8262908;28;20217;-77
2023/08/23 12:38:52;;;;;;;6.60;3.55;;;;;32.90;96658.00;;;;8260780;28;20261;-78
2023/08/23 12:42:58;;;;;;;5.03;3.50;;;;;32.90;96651.00;;;;8268573;28;20254;-76
2023/08/23 12:47:02;;;;;;;6.25;3.53;;;;;33.10;96652.00;;;;8259620;28;20307;-77
2023/08/23 12:51:05;;;;;;;3.65;3.35;;;;;33.00;96651.00;;;;8265112;28;20237;-75
2023/08/23 12:55:10;;;;;;;5.45;3.47;;;;;32.80;96649.00;;;;8264984;28;20285;-75
2023/08/23 12:59:13;;;;;;;4.20;3.65;;;;;32.80;96650.00;;;;8264155;28;20245;-73
2023/08/23 13:03:20;;;;;;;4.20;3.65;;;;;32.80;96643.00;;;;8263575;28;20591;-72
2023/08/23 13:07:25;;;;;;;6.38;4.00;;;;;32.60;96639.00;;;;8261036;28;20206;-70
2023/08/23 13:11:31;;;;;;;4.20;3.20;;;;;32.30;96638.00;;;;8254960;28;20638;-70
2023/08/23 13:15:36;;;;;;;5.10;3.40;;;;;32.30;96634.00;;;;8255031;28;20716;-69
2023/08/23 13:19:40;;;;;;;8.25;3.40;;;;;32.50;96639.00;;;;8258170;28;20202;-70
2023/08/23 13:23:47;;;;;;;5.78;4.03;;;;;32.30;96634.00;;;;8257556;28;20238;-69
2023/08/23 13:27:51;;;;;;;7.80;4.10;;;;;32.50;96635.00;;;;8261721;28;20292;-71
2023/08/23 13:31:54;;;;;;;6.45;3.35;;;;;32.60;96648.00;;;;8265328;28;21007;-70
2023/08/23 13:35:59;;;;;;;3.35;3.00;;;;;32.50;96631.00;;;;8272478;28;20684;-69
2023/08/23 13:40:05;;;;;;;3.38;3.08;;;;;32.50;96629.00;;;;8257170;28;20301;-68
2023/08/23 13:44:10;;;;;;;5.03;3.50;;;;;33.10;96623.00;;;;8261746;28;20237;-68
2023/08/23 13:48:15;;;;;;;6.57;3.00;;;;;33.80;96629.00;;;;8260866;28;20198;-69
2023/08/23 13:52:19;;;;;;;5.15;3.20;;;;;34.40;96623.00;;;;8269107;28;20198;-69
2023/08/23 13:56:25;;;;;;;6.45;3.00;;;;;34.80;96628.00;;;;8269547;28;20888;-68
2023/08/23 14:00:33;;;;;;;4.10;3.00;;;;;35.30;96622.00;;;;8267245;28;20211;-68
2023/08/23 14:04:36;;;;;;;5.75;2.80;;;;;35.60;96618.00;;;;8258209;28;20281;-69
2023/08/23 14:08:41;;;;;;;4.43;2.92;;;;;35.90;96619.00;;;;8267756;28;20202;-69
2023/08/23 14:12:45;;;;;;;4.28;3.60;;;;;35.50;96607.00;;;;8260025;28;20658;-69
2023/08/23 14:16:54;;;;;;;3.20;2.90;;;;;35.90;96608.00;;;;8272678;28;20202;-68
2023/08/23 14:21:08;;;;;;;3.20;3.00;;;;;35.90;96615.00;;;;8260312;28;20258;-69
2023/08/23 14:25:12;;;;;;;3.45;2.78;;;;;35.90;96610.00;;;;8269478;28;20236;-68
2023/08/23 14:29:19;;;;;;;24.13;3.83;;;;;35.40;96606.00;;;;8281083;28;20698;-69
2023/08/23 14:33:23;;;;;;;6.50;2.95;;;;;35.10;96609.00;;;;8275678;28;20241;-68
2023/08/23 14:37:30;;;;;;;21.52;4.32;;;;;34.80;96611.00;;;;8270076;28;20199;-68
2023/08/23 14:41:33;;;;;;;10.20;3.50;;;;;34.60;96615.00;;;;8268437;28;20212;-68
2023/08/23 14:45:47;;;;;;;11.75;3.30;;;;;34.60;96612.00;;;;8255988;28;20242;-68
2023/08/23 14:49:51;;;;;;;3.85;2.95;;;;;34.50;96612.00;;;;8275316;28;20209;-68
2023/08/23 14:53:55;;;;;;;9.43;3.05;;;;;34.40;96601.00;;;;8268385;28;20289;-67
2023/08/23 14:57:58;;;;;;;6.65;3.28;;;;;34.40;96612.00;;;;8277627;28;20638;-70
2023/08/23 15:02:01;;;;;;;4.10;3.38;;;;;34.60;96610.00;;;;8259733;28;20234;-69
2023/08/23 15:06:07;;;;;;;3.85;3.45;;;;;34.90;96608.00;;;;8263909;28;20577;-68
2023/08/23 15:10:11;;;;;;;9.50;3.85;;;;;35.00;96608.00;;;;8266243;28;20241;-67
2023/08/23 15:14:16;;;;;;;5.28;2.95;;;;;35.00;96611.00;;;;8263537;28;20203;-70
2023/08/23 15:18:19;;;;;;;3.63;3.22;;;;;35.20;96609.00;;;;8258140;28;20203;-67
2023/08/23 15:22:25;;;;;;;5.20;3.47;;;;;35.10;96602.00;;;;8266593;28;20222;-67
2023/08/23 15:26:29;;;;;;;7.53;3.55;;;;;34.90;96606.00;;;;8263243;28;20774;-65
2023/08/23 15:30:34;;;;;;;8.85;3.10;;;;;34.60;96598.00;;;;8269540;28;20277;-66
2023/08/23 15:34:51;;;;;;;6.20;3.15;;;;;34.50;96600.00;;;;8264488;28;20210;-65
2023/08/23 15:38:56;;;;;;;66.15;5.65;;;;;34.60;96605.00;;;;8272338;28;20206;-65
2023/08/23 15:43:02;;;;;;;9.38;5.05;;;;;34.90;96614.00;;;;8256977;28;20234;-65
2023/08/23 15:47:08;;;;;;;5.57;3.10;;;;;35.00;96623.00;;;;8270733;28;20225;-65
2023/08/23 15:51:12;;;;;;;67.78;5.53;;;;;34.50;96610.00;;;;8271312;28;21010;-65
2023/08/23 15:55:18;;;;;;;82.13;5.53;;;;;34.40;96609.00;;;;8283616;28;20198;-65
2023/08/23 15:59:21;;;;;;;33.03;4.10;;;;;34.40;96608.00;;;;8271734;28;20202;-65
2023/08/23 16:03:25;;;;;;;6.50;3.20;;;;;34.30;96607.00;;;;8278884;28;20856;-66
2023/08/23 16:07:30;;;;;;;16.40;3.85;;;;;34.20;96606.00;;;;8278610;28;20198;-66
2023/08/23 16:11:34;;;;;;;6.57;3.53;;;;;34.30;96597.00;;;;8264576;28;20240;-65
2023/08/23 16:15:44;;;;;;;60.67;5.03;;;;;34.60;96592.00;;;;8261714;28;20225;-66
2023/08/23 16:19:52;;;;;;;135.55;8.32;;;;;34.50;96592.00;;;;8256903;28;20245;-66
2023/08/23 16:23:56;;;;;;;103.65;7.18;;;;;34.40;96596.00;;;;8278905;28;20907;-64
2023/08/23 16:28:04;;;;;;;21.33;4.10;;;;;34.30;96597.00;;;;8276514;28;20216;-65
2023/08/23 16:32:07;;;;;;;6.07;3.05;;;;;34.20;96592.00;;;;8269386;28;20202;-65
2023/08/23 16:36:10;;;;;;;5.93;3.90;;;;;34.30;96594.00;;;;8257242;28;20950;-65
2023/08/23 16:40:13;;;;;;;16.17;3.60;;;;;34.60;96594.00;;;;8275520;28;20921;-65
2023/08/23 16:44:18;;;;;;;6.85;3.40;;;;;34.70;96593.00;;;;8269310;28;20237;-65
2023/08/23 16:48:24;;;;;;;9.23;3.95;;;;;35.00;96597.00;;;;8268303;28;20199;-65
2023/08/23 16:52:28;;;;;;;3.88;3.40;;;;;35.00;96599.00;;;;8257839;28;20294;-65
2023/08/23 16:56:34;;;;;;;7.55;3.35;;;;;34.80;96609.00;;;;8261991;28;20294;-64
2023/08/23 17:00:46;;;;;;;6.65;3.55;;;;;34.50;96612.00;;;;8250551;28;20654;-65
2023/08/23 17:04:54;;;;;;;10.48;3.72;;;;;34.20;96620.00;;;;8271405;28;20261;-64
2023/08/23 17:08:57;;;;;;;3.80;3.40;;;;;34.00;96610.00;;;;8271543;28;20206;-64
2023/08/23 17:13:02;;;;;;;5.57;3.50;;;;;33.80;96601.00;;;;8265228;28;20206;-65
2023/08/23 17:17:13;;;;;;;4.53;3.78;;;;;33.30;96613.00;;;;8268009;28;20774;-64
2023/08/23 17:21:16;;;;;;;4.43;3.60;;;;;32.60;96605.00;;;;8276849;28;20281;-65
2023/08/23 17:25:19;;;;;;;5.85;3.47;;;;;31.80;96613.00;;;;8265494;28;20262;-64
2023/08/23 17:29:22;;;;;;;16.65;4.22;;;;;31.20;96616.00;;;;8263002;28;20202;-64
2023/08/23 17:33:27;;;;;;;29.90;4.10;;;;;30.70;96619.00;;;;8271934;28;20298;-65
2023/08/23 17:37:30;;;;;;;13.02;3.80;;;;;30.30;96625.00;;;;8263630;28;20203;-64
2023/08/23 17:41:33;;;;;;;17.38;4.20;;;;;29.90;96617.00;;;;8254203;28;20794;-63
2023/08/23 17:45:37;;;;;;;9.82;4.43;;;;;29.60;96619.00;;;;8256280;28;20226;-65
2023/08/23 17:49:42;;;;;;;13.07;3.67;;;;;29.30;96623.00;;;;8257072;28;20234;-63
2023/08/23 17:53:45;;;;;;;17.45;4.00;;;;;29.10;96637.00;;;;8246391;28;20227;-64
2023/08/23 17:57:50;;;;;;;15.35;4.65;;;;;28.90;96628.00;;;;8253159;28;20238;-63
2023/08/23 18:01:53;;;;;;;17.45;4.03;;;;;28.70;96632.00;;;;8263149;28;20570;-64
2023/08/23 18:05:59;;;;;;;22.90;4.50;;;;;28.40;96634.00;;;;8264027;28;20240;-63
2023/08/23 18:10:02;;;;;;;21.27;4.30;;;;;28.20;96633.00;;;;8261130;28;20194;-63
2023/08/23 18:14:05;;;;;;;18.33;4.00;;;;;27.90;96634.00;;;;8244076;28;20198;-64
2023/08/23 18:18:10;;;;;;;7.85;3.72;;;;;27.60;96634.00;;;;8257819;28;20208;-63
2023/08/23 18:22:14;;;;;;;9.63;3.80;;;;;27.30;96636.00;;;;8274395;28;20277;-64
2023/08/23 18:26:18;;;;;;;9.02;3.67;;;;;27.00;96647.00;;;;8272705;28;20326;-63
2023/08/23 18:30:21;;;;;;;6.03;3.97;;;;;26.80;96655.00;;;;8261128;28;20707;-61
2023/08/23 18:34:26;;;;;;;5.90;4.22;;;;;26.70;96644.00;;;;8262834;28;20643;-61
2023/08/23 18:38:33;;;;;;;7.55;4.00;;;;;26.70;96649.00;;;;8272461;28;20202;-61
2023/08/23 18:42:36;;;;;;;7.22;3.47;;;;;26.50;96647.00;;;;8261184;28;20205;-61
2023/08/23 18:46:43;;;;;;;11.93;4.18;;;;;26.20;96655.00;;;;8262773;28;20222;-61
2023/08/23 18:50:49;;;;;;;6.57;3.72;;;;;25.90;96671.00;;;;8263397;28;20230;-61
2023/08/23 18:54:53;;;;;;;9.25;4.20;;;;;25.60;96664.00;;;;8256842;28;20209;-62
2023/08/23 18:59:00;;;;;;;9.75;4.00;;;;;25.30;96664.00;;;;8271151;28;20211;-61
2023/08/23 19:03:04;;;;;;;7.57;4.40;;;;;25.00;96664.00;;;;8258423;28;20692;-62
2023/08/23 19:07:07;;;;;;;8.82;4.18;;;;;24.80;96676.00;;;;8264523;28;20231;-62
2023/08/23 19:11:16;;;;;;;4.97;4.00;;;;;24.60;96676.00;;;;8257909;28;20298;-61
2023/08/23 19:15:23;;;;;;;9.10;4.38;;;;;24.50;96682.00;;;;8270110;28;20208;-61
2023/08/23 19:19:26;;;;;;;9.02;5.25;;;;;24.20;96683.00;;;;8264918;28;20616;-61
2023/08/23 19:23:39;;;;;;;11.85;4.75;;;;;24.10;96687.00;;;;8260498;28;20199;-62
2023/08/23 19:27:43;;;;;;;6.45;4.15;;;;;23.80;96677.00;;;;8275186;28;20700;-62
2023/08/23 19:31:56;;;;;;;10.82;5.05;;;;;23.60;96686.00;;;;8275806;28;20195;-62
2023/08/23 19:36:00;;;;;;;9.70;5.15;;;;;23.50;96685.00;;;;8265230;28;20245;-61
2023/08/23 19:40:05;;;;;;;14.18;5.22;;;;;23.30;96689.00;;;;8262233;28;20239;-62
2023/08/23 19:44:11;;;;;;;14.57;5.15;;;;;23.10;96692.00;;;;8268701;28;20226;-62
2023/08/23 19:48:16;;;;;;;20.83;6.68;;;;;23.00;96687.00;;;;8278143;28;20206;-61
2023/08/23 19:52:23;;;;;;;24.55;5.60;;;;;22.90;96699.00;;;;8280625;28;20700;-62
2023/08/23 19:56:26;;;;;;;30.63;6.07;;;;;22.60;96704.00;;;;8264172;28;20222;-61
2023/08/23 20:00:31;;;;;;;42.60;6.38;;;;;22.50;96708.00;;;;8272840;28;20350;-61
2023/08/23 20:04:34;;;;;;;35.58;5.78;;;;;22.40;96704.00;;;;8266733;28;20241;-62
2023/08/23 20:08:37;;;;;;;45.65;6.65;;;;;22.20;96702.00;;;;8272662;28;20234;-62
2023/08/23 20:12:40;;;;;;;61.72;7.50;;;;;22.10;96701.00;;;;8271988;28;20210;-62
2023/08/23 20:16:49;;;;;;;68.22;7.90;;;;;22.00;96700.00;;;;8257184;28;20586;-62
2023/08/23 20:20:52;;;;;;;54.65;7.57;;;;;21.90;96695.00;;;;8265579;28;20202;-62
2023/08/23 20:24:57;;;;;;;47.13;6.85;;;;;21.70;96701.00;;;;8271425;28;20387;-61
2023/08/23 20:29:02;;;;;;;62.92;7.18;;;;;21.50;96701.00;;;;8270963;28;20307;-63